Time;durP1;ratioP1;P1;durP2;ratioP2;P2;SDS_P1;SDS_P2;PMS_P1;PMS_P2;Temp;Humidity;BMP_temperature;BMP_pressure;BME280_temperature;BME280_humidity;BME280_pressure;Samples;Min_cycle;Max_cycle;Signal;HPM_P1;HPM_P2
2022/08/27 00:00:54;;;;;;;;;;;23.20;77.00;;;;;;5036818;28;19944;-95
2022/08/27 00:03:19;;;;;;;;;;;23.20;77.40;;;;;;5037452;28;19981;-96
2022/08/27 00:05:45;;;;;;;;;;;23.10;77.70;;;;;;5054829;28;19940;-96
2022/08/27 00:08:11;;;;;;;;;;;23.00;77.90;;;;;;5036678;28;20003;-96
2022/08/27 00:10:37;;;;;;;;;;;23.00;78.00;;;;;;5035988;28;19947;-95
2022/08/27 00:13:03;;;;;;;;;;;22.90;78.40;;;;;;5054317;28;19959;-96
2022/08/27 00:15:29;;;;;;;;;;;22.80;77.80;;;;;;5036060;28;20010;-95
2022/08/27 00:17:55;;;;;;;;;;;22.80;76.80;;;;;;5054409;28;20269;-96
2022/08/27 00:20:22;;;;;;;;;;;22.80;76.60;;;;;;5039865;28;20113;-95
2022/08/27 00:22:48;;;;;;;;;;;22.90;77.10;;;;;;5074050;28;20372;-96
2022/08/27 00:25:14;;;;;;;;;;;22.90;77.80;;;;;;5073655;28;19939;-96
2022/08/27 00:27:40;;;;;;;;;;;22.90;78.20;;;;;;5073879;28;20508;-96
2022/08/27 00:30:07;;;;;;;;;;;22.90;78.20;;;;;;5073552;28;19941;-95
2022/08/27 00:32:32;;;;;;;;;;;22.90;77.80;;;;;;5073908;28;19936;-96
2022/08/27 00:34:58;;;;;;;;;;;23.00;77.20;;;;;;5073553;28;20408;-96
2022/08/27 00:37:24;;;;;;;;;;;23.00;76.80;;;;;;5055418;28;19968;-96
2022/08/27 00:39:49;;;;;;;;;;;23.10;76.90;;;;;;5073853;28;19985;-96
2022/08/27 00:42:15;;;;;;;;;;;23.20;76.30;;;;;;5073438;28;19939;-96
2022/08/27 00:44:40;;;;;;;;;;;23.10;76.40;;;;;;5073794;28;19939;-96
2022/08/27 00:47:09;;;;;;;;;;;23.10;77.00;;;;;;5073883;28;19950;-96
2022/08/27 00:49:46;;;;;;;;;;;23.10;77.00;;;;;;5057379;28;19949;-96
2022/08/27 00:52:12;;;;;;;;;;;23.10;77.40;;;;;;5077406;28;19974;-96
2022/08/27 00:54:38;;;;;;;;;;;23.00;78.00;;;;;;5077240;28;20018;-96
2022/08/27 00:57:04;;;;;;;;;;;23.00;78.30;;;;;;5077306;28;19944;-96
2022/08/27 00:59:31;;;;;;;;;;;23.00;78.40;;;;;;5059017;28;19943;-96
2022/08/27 01:04:42;;;;;;;;;;;23.00;78.20;;;;;;5077641;28;20001;-95
2022/08/27 01:07:08;;;;;;;;;;;23.00;78.30;;;;;;5077207;28;19943;-96
2022/08/27 01:09:34;;;;;;;;;;;23.00;78.70;;;;;;5077360;28;20287;-96
2022/08/27 01:12:00;;;;;;;;;;;23.00;78.40;;;;;;5077358;28;20444;-96
2022/08/27 01:14:26;;;;;;;;;;;23.00;78.40;;;;;;5077494;28;20032;-96
2022/08/27 01:16:53;;;;;;;;;;;23.00;78.90;;;;;;5059650;28;19940;-96
2022/08/27 01:19:22;;;;;;;;;;;22.90;79.80;;;;;;5059839;28;19957;-96
2022/08/27 01:21:50;;;;;;;;;;;22.90;79.50;;;;;;5062610;28;19977;-96
2022/08/27 01:24:23;;;;;;;;;;;22.90;79.00;;;;;;5058285;28;19939;-96
2022/08/27 01:26:48;;;;;;;;;;;22.90;79.00;;;;;;5039957;28;19943;-96
2022/08/27 01:29:14;;;;;;;;;;;22.90;79.40;;;;;;5057125;28;19960;-96
2022/08/27 01:31:40;;;;;;;;;;;22.90;79.40;;;;;;5057617;28;19952;-96
2022/08/27 01:34:06;;;;;;;;;;;22.80;79.80;;;;;;5057489;28;19945;-96
2022/08/27 01:36:31;;;;;;;;;;;22.70;80.50;;;;;;5039829;28;19964;-96
2022/08/27 01:38:57;;;;;;;;;;;22.60;80.70;;;;;;5057568;28;19977;-96
2022/08/27 01:41:23;;;;;;;;;;;22.60;81.20;;;;;;5057127;28;19944;-96
2022/08/27 01:43:49;;;;;;;;;;;22.70;80.60;;;;;;5057577;28;20274;-96
2022/08/27 01:46:19;;;;;;;;;;;22.70;79.80;;;;;;5038869;28;19953;-96
2022/08/27 01:48:45;;;;;;;;;;;22.70;79.60;;;;;;5057774;28;19966;-96
2022/08/27 01:51:12;;;;;;;;;;;22.80;79.50;;;;;;5056215;28;20651;-96
2022/08/27 01:53:38;;;;;;;;;;;22.80;79.10;;;;;;5057157;28;19947;-96
2022/08/27 01:56:04;;;;;;;;;;;22.80;78.60;;;;;;5038947;28;20057;-96
2022/08/27 01:58:30;;;;;;;;;;;22.80;78.90;;;;;;5056535;28;19953;-96
2022/08/27 02:00:58;;;;;;;;;;;22.80;79.20;;;;;;5056446;28;19937;-96
2022/08/27 02:03:24;;;;;;;;;;;22.70;79.70;;;;;;5056662;28;19938;-96
2022/08/27 02:05:49;;;;;;;;;;;22.70;79.70;;;;;;5057098;28;19948;-96
2022/08/27 02:08:16;;;;;;;;;;;22.70;79.80;;;;;;5057272;28;19940;-96
2022/08/27 02:10:42;;;;;;;;;;;22.70;79.90;;;;;;5056806;28;19939;-96
2022/08/27 02:13:08;;;;;;;;;;;22.80;79.20;;;;;;5056575;28;20042;-96
2022/08/27 02:15:34;;;;;;;;;;;22.80;78.70;;;;;;5038155;28;20405;-96
2022/08/27 02:18:00;;;;;;;;;;;22.80;79.00;;;;;;5056462;28;19963;-96
2022/08/27 02:20:27;;;;;;;;;;;22.80;79.70;;;;;;5056313;28;19978;-96
2022/08/27 02:22:52;;;;;;;;;;;22.80;80.40;;;;;;5038452;28;20042;-96
2022/08/27 02:25:19;;;;;;;;;;;22.80;80.20;;;;;;5056620;28;19985;-96
2022/08/27 02:27:45;;;;;;;;;;;22.70;80.70;;;;;;5038760;28;20032;-96
2022/08/27 02:30:12;;;;;;;;;;;22.60;80.60;;;;;;5056901;28;19997;-96
2022/08/27 02:32:38;;;;;;;;;;;22.50;80.10;;;;;;5056389;28;19944;-96
2022/08/27 02:35:04;;;;;;;;;;;22.30;80.60;;;;;;5056644;28;19967;-96
2022/08/27 02:37:30;;;;;;;;;;;22.30;80.80;;;;;;5056318;28;19961;-96
2022/08/27 02:39:56;;;;;;;;;;;22.20;81.50;;;;;;5056195;28;19951;-96
2022/08/27 02:42:21;;;;;;;;;;;22.10;80.70;;;;;;5037408;28;20082;-96
2022/08/27 02:44:47;;;;;;;;;;;22.20;79.80;;;;;;5037593;28;20001;-96
2022/08/27 02:47:13;;;;;;;;;;;22.20;79.60;;;;;;5055531;28;19949;-96
2022/08/27 02:49:39;;;;;;;;;;;22.30;78.70;;;;;;5055546;28;19942;-96
2022/08/27 02:52:05;;;;;;;;;;;22.50;77.80;;;;;;5056437;28;19936;-96
2022/08/27 02:54:31;;;;;;;;;;;22.50;77.60;;;;;;5037690;28;19969;-96
2022/08/27 02:56:56;;;;;;;;;;;22.70;77.60;;;;;;5037503;28;19953;-96
2022/08/27 02:59:22;;;;;;;;;;;22.70;77.90;;;;;;5055257;28;19940;-96
2022/08/27 03:01:48;;;;;;;;;;;22.70;78.50;;;;;;5055467;28;20027;-96
2022/08/27 03:04:13;;;;;;;;;;;22.80;78.40;;;;;;5055001;28;19989;-96
2022/08/27 03:06:40;;;;;;;;;;;22.80;78.20;;;;;;5036753;28;19956;-96
2022/08/27 03:09:05;;;;;;;;;;;22.80;78.40;;;;;;5055450;28;19942;-95
2022/08/27 03:11:32;;;;;;;;;;;22.70;80.00;;;;;;5054176;28;19943;-96
2022/08/27 03:13:58;;;;;;;;;;;22.60;81.50;;;;;;5054595;28;19936;-96
2022/08/27 03:16:24;;;;;;;;;;;22.40;82.70;;;;;;5054410;28;19949;-96
2022/08/27 03:18:50;;;;;;;;;;;22.30;83.40;;;;;;5054663;28;20462;-96
2022/08/27 03:21:20;;;;;;;;;;;22.10;83.20;;;;;;5054247;28;19974;-95
2022/08/27 03:23:47;;;;;;;;;;;22.10;82.20;;;;;;5054618;28;20027;-96
2022/08/27 03:26:13;;;;;;;;;;;22.20;81.10;;;;;;5054126;28;20040;-96
2022/08/27 03:28:39;;;;;;;;;;;22.30;80.20;;;;;;5055223;28;20036;-96
2022/08/27 03:31:06;;;;;;;;;;;22.30;80.50;;;;;;5036523;28;20425;-96
2022/08/27 03:33:33;;;;;;;;;;;22.40;80.30;;;;;;5036815;28;19951;-96
2022/08/27 03:35:58;;;;;;;;;;;22.50;80.80;;;;;;5036289;28;19968;-96
2022/08/27 03:38:24;;;;;;;;;;;22.60;80.50;;;;;;5054504;28;19947;-96
2022/08/27 03:40:50;;;;;;;;;;;22.70;80.70;;;;;;5036186;28;20330;-95
2022/08/27 03:43:16;;;;;;;;;;;22.60;81.10;;;;;;5054448;28;19972;-96
2022/08/27 03:45:42;;;;;;;;;;;22.60;81.50;;;;;;5054082;28;19941;-96
2022/08/27 03:48:09;;;;;;;;;;;22.60;80.80;;;;;;5054672;28;19942;-95
2022/08/27 03:50:37;;;;;;;;;;;22.60;81.80;;;;;;5037495;28;20393;-95
2022/08/27 03:53:02;;;;;;;;;;;22.50;81.90;;;;;;5036917;28;19995;-96
2022/08/27 03:55:28;;;;;;;;;;;22.20;84.20;;;;;;5054852;28;19967;-96
2022/08/27 03:57:53;;;;;;;;;;;22.00;84.40;;;;;;5036713;28;19949;-96
2022/08/27 04:00:19;;;;;;;;;;;22.10;85.90;;;;;;5055911;28;20053;-96
2022/08/27 04:02:45;;;;;;;;;;;22.20;86.30;;;;;;5038076;28;20412;-96
2022/08/27 04:05:11;;;;;;;;;;;22.10;82.80;;;;;;5056276;28;19943;-96
2022/08/27 04:07:37;;;;;;;;;;;22.30;84.40;;;;;;5055829;28;19939;-96
2022/08/27 04:10:03;;;;;;;;;;;22.40;83.00;;;;;;5038598;28;20345;-96
2022/08/27 04:12:29;;;;;;;;;;;22.40;82.80;;;;;;5039577;28;19950;-96
2022/08/27 04:14:54;;;;;;;;;;;22.50;82.30;;;;;;5058371;28;19962;-96
2022/08/27 04:17:20;;;;;;;;;;;22.50;80.30;;;;;;5039867;28;19977;-96
2022/08/27 04:19:46;;;;;;;;;;;22.70;79.80;;;;;;5037792;28;19948;-96
2022/08/27 04:22:11;;;;;;;;;;;22.70;83.10;;;;;;5040176;22;20036;-96
2022/08/27 04:24:37;;;;;;;;;;;22.50;82.20;;;;;;5034300;28;19947;-96
2022/08/27 04:27:03;;;;;;;;;;;22.30;83.10;;;;;;5037161;28;19968;-96
2022/08/27 04:29:29;;;;;;;;;;;22.20;83.50;;;;;;5037237;28;19938;-96
2022/08/27 04:31:55;;;;;;;;;;;22.30;83.20;;;;;;5037552;28;20430;-96
2022/08/27 04:34:20;;;;;;;;;;;22.30;82.80;;;;;;5037337;28;19967;-96
2022/08/27 04:36:46;;;;;;;;;;;22.40;82.10;;;;;;5036753;28;19936;-96
2022/08/27 04:39:13;;;;;;;;;;;22.40;83.10;;;;;;5036972;28;19943;-96
2022/08/27 04:41:38;;;;;;;;;;;22.40;84.60;;;;;;5018622;28;19976;-96
2022/08/27 04:44:06;;;;;;;;;;;22.30;85.90;;;;;;5036668;28;19942;-96
2022/08/27 04:46:32;;;;;;;;;;;22.30;86.10;;;;;;5036288;28;20455;-96
2022/08/27 04:48:59;;;;;;;;;;;22.00;86.20;;;;;;5018227;28;19986;-96
2022/08/27 04:51:25;;;;;;;;;;;21.90;87.00;;;;;;5018288;28;19985;-96
2022/08/27 04:53:51;;;;;;;;;;;21.80;87.80;;;;;;5018360;28;20463;-96
2022/08/27 04:56:18;;;;;;;;;;;21.80;87.70;;;;;;5036845;28;19942;-96
2022/08/27 04:58:44;;;;;;;;;;;21.80;87.70;;;;;;5036739;28;20030;-96
2022/08/27 05:01:14;;;;;;;;;;;22.00;87.60;;;;;;5035980;28;20398;-96
2022/08/27 05:03:40;;;;;;;;;;;22.00;83.80;;;;;;5035770;28;19949;-96
2022/08/27 05:06:06;;;;;;;;;;;22.20;83.40;;;;;;5035538;28;19935;-96
2022/08/27 05:08:32;;;;;;;;;;;22.40;82.50;;;;;;5029050;28;20112;-96
2022/08/27 05:10:59;;;;;;;;;;;22.50;81.10;;;;;;5035492;28;19935;-96
2022/08/27 05:13:24;;;;;;;;;;;22.70;82.00;;;;;;5036060;28;20462;-96
2022/08/27 05:15:57;;;;;;;;;;;22.60;82.10;;;;;;5018764;28;19970;-96
2022/08/27 05:18:23;;;;;;;;;;;22.40;80.90;;;;;;5018418;28;19948;-96
2022/08/27 05:20:48;;;;;;;;;;;22.50;81.40;;;;;;5035866;28;19997;-96
2022/08/27 05:23:16;;;;;;;;;;;22.50;81.10;;;;;;5035714;28;19947;-96
2022/08/27 05:25:42;;;;;;;;;;;22.50;81.00;;;;;;5018302;28;19944;-96
2022/08/27 05:28:08;;;;;;;;;;;22.70;80.00;;;;;;5019232;28;19998;-96
2022/08/27 05:30:38;;;;;;;;;;;22.80;78.60;;;;;;5036823;28;20380;-96
2022/08/27 05:33:04;;;;;;;;;;;23.00;78.00;;;;;;5036872;28;19950;-96
2022/08/27 05:35:31;;;;;;;;;;;23.20;77.70;;;;;;5035014;28;19958;-96
2022/08/27 05:37:58;;;;;;;;;;;23.20;78.60;;;;;;5035710;28;20293;-96
2022/08/27 05:40:24;;;;;;;;;;;23.20;77.50;;;;;;5035563;28;20068;-96
2022/08/27 05:42:50;;;;;;;;;;;23.30;77.00;;;;;;5035325;28;19972;-96
2022/08/27 05:45:16;;;;;;;;;;;23.30;77.10;;;;;;5017629;28;20317;-96
2022/08/27 05:47:41;;;;;;;;;;;23.30;76.80;;;;;;5034822;28;19936;-96
2022/08/27 05:50:07;;;;;;;;;;;23.30;76.10;;;;;;5035500;28;19945;-96
2022/08/27 05:52:34;;;;;;;;;;;23.50;76.60;;;;;;5035110;28;19936;-96
2022/08/27 05:55:00;;;;;;;;;;;23.70;75.70;;;;;;5034917;28;19992;-96
2022/08/27 05:57:26;;;;;;;;;;;23.80;75.20;;;;;;5017701;28;19954;-96
2022/08/27 06:02:36;;;;;;;;;;;24.10;74.80;;;;;;5035221;28;19958;-96
2022/08/27 06:05:03;;;;;;;;;;;24.20;74.70;;;;;;5017753;28;19947;-96
2022/08/27 06:07:28;;;;;;;;;;;24.20;74.60;;;;;;5030191;28;20389;-96
2022/08/27 06:09:54;;;;;;;;;;;24.30;75.30;;;;;;5035545;28;19948;-96
2022/08/27 06:12:20;;;;;;;;;;;24.20;74.40;;;;;;5035246;28;20326;-96
2022/08/27 06:14:45;;;;;;;;;;;24.30;74.00;;;;;;5035009;28;19939;-96
2022/08/27 06:17:11;;;;;;;;;;;24.30;73.20;;;;;;5034674;28;19942;-96
2022/08/27 06:19:36;;;;;;;;;;;24.30;73.40;;;;;;5016916;28;19999;-96
2022/08/27 06:22:02;;;;;;;;;;;24.30;73.00;;;;;;5034376;28;19978;-96
2022/08/27 06:24:28;;;;;;;;;;;24.30;72.90;;;;;;5016881;28;20419;-96
2022/08/27 06:26:55;;;;;;;;;;;24.40;73.20;;;;;;5034409;28;20475;-96
2022/08/27 06:29:22;;;;;;;;;;;24.40;72.90;;;;;;5034187;28;19967;-96
2022/08/27 06:31:49;;;;;;;;;;;24.50;72.70;;;;;;5034337;28;20416;-96
2022/08/27 06:34:14;;;;;;;;;;;24.60;72.10;;;;;;5034218;28;19936;-96
2022/08/27 06:36:41;;;;;;;;;;;24.70;71.60;;;;;;5034584;28;19940;-97
2022/08/27 06:39:07;;;;;;;;;;;24.80;70.80;;;;;;5035488;28;19959;-96
2022/08/27 06:41:33;;;;;;;;;;;25.10;70.10;;;;;;5018209;28;19946;-96
2022/08/27 06:43:59;;;;;;;;;;;25.30;69.10;;;;;;5036172;28;19972;-96
2022/08/27 06:46:26;;;;;;;;;;;25.50;68.50;;;;;;5036343;28;19945;-96
2022/08/27 06:48:57;;;;;;;;;;;25.60;68.60;;;;;;5035769;28;19936;-96
2022/08/27 06:51:25;;;;;;;;;;;25.80;66.70;;;;;;5036205;28;19944;-96
2022/08/27 06:53:51;;;;;;;;;;;25.90;66.50;;;;;;5036124;28;19942;-96
2022/08/27 06:56:17;;;;;;;;;;;26.00;65.90;;;;;;5036736;28;20438;-96
2022/08/27 06:58:43;;;;;;;;;;;26.00;64.70;;;;;;5036254;28;20009;-96
2022/08/27 07:01:16;;;;;;;;;;;26.10;64.90;;;;;;5036309;28;19943;-96
2022/08/27 07:03:42;;;;;;;;;;;26.30;63.80;;;;;;5035395;28;20028;-96
2022/08/27 07:06:08;;;;;;;;;;;26.40;63.10;;;;;;5017102;28;19947;-96
2022/08/27 07:08:34;;;;;;;;;;;26.50;61.00;;;;;;5029710;28;19946;-96
2022/08/27 07:11:00;;;;;;;;;;;26.60;59.90;;;;;;5017374;28;19946;-96
2022/08/27 07:13:26;;;;;;;;;;;26.80;60.00;;;;;;5035772;28;20417;-96
2022/08/27 07:15:52;;;;;;;;;;;26.90;60.60;;;;;;5035405;28;20293;-96
2022/08/27 07:18:17;;;;;;;;;;;27.00;59.70;;;;;;5035759;28;20424;-96
2022/08/27 07:20:43;;;;;;;;;;;27.10;59.10;;;;;;5034824;28;20464;-96
2022/08/27 07:23:09;;;;;;;;;;;27.10;58.20;;;;;;5034908;28;19942;-96
2022/08/27 07:25:35;;;;;;;;;;;27.20;59.00;;;;;;5018399;28;19950;-96
2022/08/27 07:28:00;;;;;;;;;;;27.30;58.40;;;;;;5017582;28;20330;-96
2022/08/27 07:30:26;;;;;;;;;;;27.30;59.40;;;;;;5036185;28;19937;-96
2022/08/27 07:32:52;;;;;;;;;;;27.20;59.60;;;;;;5036674;28;19948;-96
2022/08/27 07:35:18;;;;;;;;;;;27.20;59.90;;;;;;5035998;28;19967;-96
2022/08/27 07:37:43;;;;;;;;;;;27.20;59.10;;;;;;5018909;28;20348;-96
2022/08/27 07:40:11;;;;;;;;;;;27.30;58.90;;;;;;5037005;28;19973;-96
2022/08/27 07:45:20;;;;;;;;;;;27.30;59.10;;;;;;5036865;28;19949;-96
2022/08/27 07:47:46;;;;;;;;;;;27.20;59.20;;;;;;5035460;28;19946;-96
2022/08/27 07:50:12;;;;;;;;;;;27.50;58.40;;;;;;5035836;28;19942;-96
2022/08/27 07:52:38;;;;;;;;;;;27.50;57.50;;;;;;5035241;28;19935;-96
2022/08/27 07:55:04;;;;;;;;;;;27.50;56.90;;;;;;5017806;28;19973;-96
2022/08/27 07:57:30;;;;;;;;;;;27.60;57.10;;;;;;5036140;28;19947;-96
2022/08/27 07:59:55;;;;;;;;;;;27.60;58.60;;;;;;5022291;28;19998;-96
2022/08/27 08:02:21;;;;;;;;;;;27.70;58.30;;;;;;5023385;28;19949;-96
2022/08/27 08:04:46;;;;;;;;;;;27.70;58.00;;;;;;5041392;28;19946;-96
2022/08/27 08:07:12;;;;;;;;;;;27.80;58.10;;;;;;5020154;28;20040;-96
2022/08/27 08:09:38;;;;;;;;;;;27.70;59.20;;;;;;5039244;28;19941;-96
2022/08/27 08:12:03;;;;;;;;;;;27.80;59.50;;;;;;5041161;28;19940;-96
2022/08/27 08:14:31;;;;;;;;;;;28.00;57.80;;;;;;5041807;28;19959;-96
2022/08/27 08:17:00;;;;;;;;;;;27.90;59.50;;;;;;5041256;28;19940;-96
2022/08/27 08:19:26;;;;;;;;;;;27.90;61.10;;;;;;5042105;28;20002;-96
2022/08/27 08:21:52;;;;;;;;;;;28.10;60.60;;;;;;5040653;28;20027;-96
2022/08/27 08:24:18;;;;;;;;;;;28.00;59.80;;;;;;5037973;28;19949;-96
2022/08/27 08:26:43;;;;;;;;;;;27.70;61.50;;;;;;5038393;28;19955;-96
2022/08/27 08:29:09;;;;;;;;;;;27.50;62.70;;;;;;5038186;28;20421;-96
2022/08/27 08:31:35;;;;;;;;;;;27.40;64.70;;;;;;5038213;28;20036;-96
2022/08/27 08:34:01;;;;;;;;;;;27.50;63.80;;;;;;5021405;28;19951;-96
2022/08/27 08:36:27;;;;;;;;;;;27.60;62.60;;;;;;5038193;28;20040;-96
2022/08/27 08:38:52;;;;;;;;;;;27.50;64.00;;;;;;5038239;28;20015;-96
2022/08/27 08:41:21;;;;;;;;;;;27.50;62.40;;;;;;5037198;28;19978;-96
2022/08/27 08:43:50;;;;;;;;;;;27.50;63.10;;;;;;5037182;28;19947;-96
2022/08/27 08:46:35;;;;;;;;;;;27.50;62.00;;;;;;5019559;28;19971;-96
2022/08/27 08:49:06;;;;;;;;;;;27.50;62.70;;;;;;5037016;28;20297;-96
2022/08/27 08:51:35;;;;;;;;;;;27.50;63.40;;;;;;5037905;28;19992;-96
2022/08/27 08:54:03;;;;;;;;;;;27.60;61.90;;;;;;5037126;28;19940;-96
2022/08/27 08:56:44;;;;;;;;;;;27.50;63.50;;;;;;5037714;28;19964;-96
2022/08/27 08:59:32;;;;;;;;;;;27.60;62.30;;;;;;5036224;28;19938;-96
2022/08/27 09:01:58;;;;;;;;;;;27.50;61.40;;;;;;5026534;28;19981;-96
2022/08/27 09:04:28;;;;;;;;;;;27.50;61.80;;;;;;5038840;28;20345;-96
2022/08/27 09:06:57;;;;;;;;;;;27.60;62.80;;;;;;5035088;28;19949;-96
2022/08/27 09:09:26;;;;;;;;;;;27.70;61.10;;;;;;5035240;28;19951;-96
2022/08/27 09:11:58;;;;;;;;;;;27.70;61.70;;;;;;5037457;28;19942;-96
2022/08/27 09:14:42;;;;;;;;;;;27.60;61.80;;;;;;5037124;28;20034;-96
2022/08/27 09:17:08;;;;;;;;;;;27.50;61.40;;;;;;5019931;28;19941;-96
2022/08/27 09:19:33;;;;;;;;;;;27.40;62.00;;;;;;5019834;28;19984;-96
2022/08/27 09:22:12;;;;;;;;;;;27.50;62.90;;;;;;5038511;28;19969;-96
2022/08/27 09:24:44;;;;;;;;;;;27.50;61.40;;;;;;5038410;28;19943;-96
2022/08/27 09:27:13;;;;;;;;;;;27.30;62.40;;;;;;5021250;28;20028;-96
2022/08/27 09:29:46;;;;;;;;;;;27.40;63.50;;;;;;5038750;28;19939;-96
2022/08/27 09:32:12;;;;;;;;;;;27.40;61.70;;;;;;5037304;28;19935;-96
2022/08/27 09:34:39;;;;;;;;;;;27.20;61.50;;;;;;5036981;28;19969;-96
2022/08/27 09:37:04;;;;;;;;;;;27.20;61.80;;;;;;5019299;28;19943;-96
2022/08/27 09:39:39;;;;;;;;;;;27.20;60.80;;;;;;5036375;28;20389;-96
2022/08/27 09:42:05;;;;;;;;;;;26.90;60.40;;;;;;5036440;28;19998;-96
2022/08/27 09:44:31;;;;;;;;;;;26.60;61.50;;;;;;5036724;28;19945;-96
2022/08/27 09:46:58;;;;;;;;;;;26.60;62.20;;;;;;5036225;28;20037;-96
2022/08/27 09:49:25;;;;;;;;;;;26.70;61.40;;;;;;5035651;28;19943;-96
2022/08/27 09:51:51;;;;;;;;;;;26.70;60.30;;;;;;5036380;28;20231;-96
2022/08/27 09:54:26;;;;;;;;;;;26.80;60.90;;;;;;5035708;28;19942;-96
2022/08/27 09:56:52;;;;;;;;;;;26.90;59.70;;;;;;5035478;28;19952;-96
2022/08/27 09:59:31;;;;;;;;;;;26.80;60.00;;;;;;5034834;28;19949;-96
2022/08/27 10:02:02;;;;;;;;;;;26.90;60.30;;;;;;5036226;28;19960;-96
2022/08/27 10:04:38;;;;;;;;;;;27.20;60.50;;;;;;5036984;28;19939;-96
2022/08/27 10:07:22;;;;;;;;;;;27.30;59.50;;;;;;5032644;28;19939;-96
2022/08/27 10:09:53;;;;;;;;;;;27.30;60.00;;;;;;5035556;28;19968;-96
2022/08/27 10:12:22;;;;;;;;;;;27.50;60.60;;;;;;5019001;28;19946;-96
2022/08/27 10:14:50;;;;;;;;;;;27.80;59.60;;;;;;5037526;28;19978;-96
2022/08/27 10:17:24;;;;;;;;;;;28.10;57.30;;;;;;5038235;28;20027;-96
2022/08/27 10:20:00;;;;;;;;;;;28.30;55.90;;;;;;5038475;28;19949;-96
2022/08/27 10:22:40;;;;;;;;;;;28.70;55.10;;;;;;5038649;28;19962;-96
2022/08/27 10:25:06;;;;;;;;;;;28.80;53.70;;;;;;5021844;28;19941;-96
2022/08/27 10:27:36;;;;;;;;;;;28.80;53.40;;;;;;5022306;28;20028;-96
2022/08/27 10:30:05;;;;;;;;;;;29.00;51.80;;;;;;5022885;28;20008;-96
2022/08/27 10:32:48;;;;;;;;;;;29.10;52.10;;;;;;5021705;28;19938;-96
2022/08/27 10:35:18;;;;;;;;;;;29.20;49.90;;;;;;5037347;28;19999;-96
2022/08/27 10:38:07;;;;;;;;;;;28.80;49.70;;;;;;5019669;28;20036;-96
2022/08/27 10:40:33;;;;;;;;;;;28.50;50.70;;;;;;5027003;28;19943;-96
2022/08/27 10:43:18;;;;;;;;;;;28.50;53.50;;;;;;5019857;28;19989;-96
2022/08/27 10:45:44;;;;;;;;;;;28.30;55.40;;;;;;5036947;28;19944;-96
2022/08/27 10:48:18;;;;;;;;;;;28.40;54.80;;;;;;5036877;28;19998;-96
2022/08/27 10:50:47;;;;;;;;;;;28.40;54.70;;;;;;5036526;28;19939;-96
2022/08/27 10:53:15;;;;;;;;;;;28.10;53.40;;;;;;5037443;28;19939;-96
2022/08/27 10:55:44;;;;;;;;;;;28.00;52.50;;;;;;5037408;28;19967;-96
2022/08/27 10:58:28;;;;;;;;;;;28.00;52.90;;;;;;5019850;28;19938;-96
2022/08/27 11:01:09;;;;;;;;;;;27.70;53.30;;;;;;5036099;28;19938;-96
2022/08/27 11:03:38;;;;;;;;;;;27.30;55.70;;;;;;5018272;28;19948;-96
2022/08/27 11:06:13;;;;;;;;;;;27.00;56.20;;;;;;5037118;28;19945;-96
2022/08/27 11:08:41;;;;;;;;;;;26.60;57.90;;;;;;5031217;28;19942;-96
2022/08/27 11:11:12;;;;;;;;;;;26.30;59.00;;;;;;5034432;28;19937;-96
2022/08/27 11:13:45;;;;;;;;;;;25.80;62.10;;;;;;5017013;28;20008;-96
2022/08/27 11:16:34;;;;;;;;;;;25.40;63.20;;;;;;5035329;28;19964;-96
2022/08/27 11:19:26;;;;;;;;;;;25.30;63.00;;;;;;5024515;28;19963;-96
2022/08/27 11:22:08;;;;;;;;;;;25.30;61.80;;;;;;5030575;28;19983;-96
2022/08/27 11:24:36;;;;;;;;;;;25.40;61.00;;;;;;5017297;28;19981;-96
2022/08/27 11:27:03;;;;;;;;;;;25.80;59.30;;;;;;5035573;28;19956;-96
2022/08/27 11:29:31;;;;;;;;;;;26.00;60.00;;;;;;5035101;28;19968;-96
2022/08/27 11:32:08;;;;;;;;;;;26.20;57.90;;;;;;5036303;28;19940;-96
2022/08/27 11:34:39;;;;;;;;;;;26.30;58.50;;;;;;5035416;28;19962;-96
2022/08/27 11:37:15;;;;;;;;;;;26.50;56.90;;;;;;5035552;28;19943;-96
2022/08/27 11:40:00;;;;;;;;;;;26.50;57.50;;;;;;5035818;28;19938;-96
2022/08/27 11:42:42;;;;;;;;;;;26.50;57.50;;;;;;5035160;28;19950;-96
2022/08/27 11:45:15;;;;;;;;;;;26.40;57.40;;;;;;5036076;28;19939;-96
2022/08/27 11:47:50;;;;;;;;;;;26.30;58.30;;;;;;5035918;28;19949;-96
2022/08/27 11:50:17;;;;;;;;;;;26.50;57.00;;;;;;5018609;28;19984;-96
2022/08/27 11:52:54;;;;;;;;;;;26.60;56.20;;;;;;5035733;28;19927;-96
2022/08/27 11:57:42;;;;;;;;;;;26.60;55.30;;;;;;5036180;28;20319;-96
2022/08/27 12:00:20;;;;;;;;;;;26.80;56.00;;;;;;5034502;28;19993;-96
2022/08/27 12:02:56;;;;;;;;;;;26.80;55.20;;;;;;5032587;28;20443;-96
2022/08/27 12:05:31;;;;;;;;;;;26.80;55.40;;;;;;5034257;28;19958;-96
2022/08/27 12:07:58;;;;;;;;;;;26.80;55.80;;;;;;5035075;28;19992;-96
2022/08/27 12:10:42;;;;;;;;;;;26.40;56.40;;;;;;5032274;28;19950;-96
2022/08/27 12:13:26;;;;;;;;;;;25.80;58.60;;;;;;5030451;28;19946;-96
2022/08/27 12:15:58;;;;;;;;;;;25.10;60.60;;;;;;5028753;28;19961;-96
2022/08/27 12:18:48;;;;;;;;;;;24.40;63.40;;;;;;5029280;28;19953;-96
2022/08/27 12:21:23;;;;;;;;;;;24.20;63.70;;;;;;5030851;28;19999;-96
2022/08/27 12:24:07;;;;;;;;;;;24.10;64.10;;;;;;5029322;28;19948;-96
2022/08/27 12:26:34;;;;;;;;;;;24.20;61.90;;;;;;5032342;28;19941;-96
2022/08/27 12:29:18;;;;;;;;;;;24.30;61.70;;;;;;5030665;28;19971;-96
2022/08/27 12:31:46;;;;;;;;;;;24.20;61.90;;;;;;5029956;28;20294;-96
2022/08/27 12:34:17;;;;;;;;;;;24.30;62.00;;;;;;5031416;28;20037;-96
2022/08/27 12:36:43;;;;;;;;;;;24.50;60.70;;;;;;5030895;28;19973;-96
2022/08/27 12:39:15;;;;;;;;;;;24.60;60.40;;;;;;5033213;28;19956;-96
2022/08/27 12:41:43;;;;;;;;;;;24.80;60.00;;;;;;5033063;28;20398;-96
2022/08/27 12:44:11;;;;;;;;;;;24.80;59.30;;;;;;5034642;28;19940;-96
2022/08/27 12:46:45;;;;;;;;;;;25.00;58.60;;;;;;5030283;28;20032;-96
2022/08/27 12:49:10;;;;;;;;;;;24.90;57.90;;;;;;5033071;28;19964;-96
2022/08/27 12:51:39;;;;;;;;;;;25.00;58.00;;;;;;5031679;28;19957;-96
2022/08/27 12:54:24;;;;;;;;;;;24.80;58.20;;;;;;5031300;28;19947;-96
2022/08/27 12:56:52;;;;;;;;;;;24.70;58.50;;;;;;5044024;28;20019;-96
2022/08/27 12:59:23;;;;;;;;;;;24.30;60.70;;;;;;5050734;28;19949;-95
2022/08/27 13:01:55;;;;;;;;;;;24.10;62.00;;;;;;5050530;28;19978;-96
2022/08/27 13:04:22;;;;;;;;;;;23.90;61.80;;;;;;5048703;28;19970;-96
2022/08/27 13:06:49;;;;;;;;;;;24.00;63.30;;;;;;5048738;28;19947;-96
2022/08/27 13:09:14;;;;;;;;;;;24.10;65.30;;;;;;5036834;28;19950;-96
2022/08/27 13:11:45;;;;;;;;;;;24.80;65.20;;;;;;5039968;28;19989;-96
2022/08/27 13:14:15;;;;;;;;;;;25.50;63.00;;;;;;5039404;28;19937;-96
2022/08/27 13:16:45;;;;;;;;;;;25.60;62.10;;;;;;5039796;28;19971;-96
2022/08/27 13:19:16;;;;;;;;;;;25.50;62.30;;;;;;5038605;28;20000;-96
2022/08/27 13:21:45;;;;;;;;;;;25.80;61.90;;;;;;5040738;28;19935;-96
2022/08/27 13:24:11;;;;;;;;;;;26.10;60.50;;;;;;5037462;28;19938;-96
2022/08/27 13:26:37;;;;;;;;;;;26.30;60.60;;;;;;5037614;28;19941;-96
2022/08/27 13:29:05;;;;;;;;;;;26.70;59.40;;;;;;5037753;28;19984;-95
2022/08/27 13:31:31;;;;;;;;;;;27.10;58.30;;;;;;5036916;28;19938;-96
2022/08/27 13:33:57;;;;;;;;;;;27.40;56.60;;;;;;5038224;28;19954;-96
2022/08/27 13:36:34;;;;;;;;;;;27.20;56.40;;;;;;5038397;28;20049;-96
2022/08/27 13:39:03;;;;;;;;;;;27.40;56.20;;;;;;5040962;28;19939;-96
2022/08/27 13:41:30;;;;;;;;;;;27.70;54.70;;;;;;5039809;28;19948;-96
2022/08/27 13:43:57;;;;;;;;;;;27.50;55.60;;;;;;5036053;28;20415;-96
2022/08/27 13:46:28;;;;;;;;;;;27.00;55.80;;;;;;5036450;28;20033;-96
2022/08/27 13:48:55;;;;;;;;;;;26.50;57.70;;;;;;5038858;28;20296;-96
2022/08/27 13:51:28;;;;;;;;;;;26.30;59.40;;;;;;5039162;28;19946;-96
2022/08/27 13:54:14;;;;;;;;;;;26.30;59.20;;;;;;5038249;28;20001;-96
2022/08/27 13:56:40;;;;;;;;;;;26.80;57.70;;;;;;5040004;28;19952;-96
2022/08/27 13:59:08;;;;;;;;;;;27.60;56.40;;;;;;5040489;28;19958;-96
2022/08/27 14:01:34;;;;;;;;;;;28.10;54.70;;;;;;5040217;28;19941;-96
2022/08/27 14:04:01;;;;;;;;;;;28.50;53.50;;;;;;5037235;28;20049;-96
2022/08/27 14:06:27;;;;;;;;;;;28.20;53.60;;;;;;5035495;28;19946;-96
2022/08/27 14:08:52;;;;;;;;;;;27.60;55.80;;;;;;5035558;28;19944;-96
2022/08/27 14:11:22;;;;;;;;;;;27.50;56.40;;;;;;5037166;28;19947;-96
2022/08/27 14:13:48;;;;;;;;;;;27.60;57.90;;;;;;5038995;28;20394;-96
2022/08/27 14:16:20;;;;;;;;;;;26.70;58.70;;;;;;5033964;28;19940;-96
2022/08/27 14:18:51;;;;;;;;;;;25.50;64.10;;;;;;5033620;28;19968;-96
2022/08/27 14:21:17;;;;;;;;;;;24.80;67.00;;;;;;5033591;28;19943;-96
2022/08/27 14:23:42;;;;;;;;;;;24.30;68.90;;;;;;5034237;28;19934;-96
2022/08/27 14:26:08;;;;;;;;;;;24.00;70.30;;;;;;5033469;28;19939;-95
2022/08/27 14:28:34;;;;;;;;;;;23.80;70.70;;;;;;5033500;28;20383;-96
2022/08/27 14:30:59;;;;;;;;;;;23.50;71.00;;;;;;5033175;28;19997;-96
2022/08/27 14:33:25;;;;;;;;;;;23.50;71.50;;;;;;5033862;28;19979;-96